Time;durP1;ratioP1;P1;durP2;ratioP2;P2;SDS_P1;SDS_P2;PMS_P1;PMS_P2;Temp;Humidity;BMP_temperature;BMP_pressure;BME280_temperature;BME280_humidity;BME280_pressure;Samples;Min_cycle;Max_cycle;Signal;HPM_P1;HPM_P2
2022/06/26 00:02:08;;;;;;;21.30;7.93;;;;;;;;;;5108024;27;20024;-77
2022/06/26 00:04:34;;;;;;;21.90;7.22;;;;;;;;;;5107684;27;20265;-77
2022/06/26 00:07:00;;;;;;;16.25;6.90;;;;;;;;;;5106544;27;20507;-77
2022/06/26 00:09:27;;;;;;;16.23;7.40;;;;;;;;;;5111168;28;20020;-77
2022/06/26 00:11:53;;;;;;;14.63;7.00;;;;;;;;;;5111014;27;20034;-78
2022/06/26 00:14:19;;;;;;;18.77;8.07;;;;;;;;;;5110586;27;20386;-77
2022/06/26 00:16:46;;;;;;;20.00;7.10;;;;;;;;;;5115080;27;20020;-77
2022/06/26 00:19:12;;;;;;;21.88;7.93;;;;;;;;;;5092388;28;20024;-78
2022/06/26 00:21:38;;;;;;;17.27;6.93;;;;;;;;;;5117107;27;20053;-78
2022/06/26 00:24:04;;;;;;;16.83;7.90;;;;;;;;;;5110618;27;20039;-78
2022/06/26 00:26:30;;;;;;;19.95;7.93;;;;;;;;;;5093894;27;20031;-78
2022/06/26 00:28:56;;;;;;;18.55;8.27;;;;;;;;;;5112149;27;20031;-77
2022/06/26 00:31:22;;;;;;;22.75;8.93;;;;;;;;;;5110393;27;20073;-76
2022/06/26 00:33:48;;;;;;;21.08;8.30;;;;;;;;;;5116448;27;20027;-77
2022/06/26 00:36:15;;;;;;;20.92;8.90;;;;;;;;;;5126195;27;20027;-77
2022/06/26 00:38:41;;;;;;;22.52;9.02;;;;;;;;;;5110833;28;20181;-77
2022/06/26 00:41:07;;;;;;;23.90;8.43;;;;;;;;;;5110462;28;20640;-76
2022/06/26 00:43:33;;;;;;;14.95;7.00;;;;;;;;;;5110042;28;20088;-77
2022/06/26 00:45:59;;;;;;;21.27;7.13;;;;;;;;;;5116880;27;20139;-77
2022/06/26 00:48:25;;;;;;;24.75;8.43;;;;;;;;;;5110015;28;20027;-77
2022/06/26 00:50:52;;;;;;;22.88;8.02;;;;;;;;;;5110710;28;20034;-78
2022/06/26 00:53:18;;;;;;;21.20;7.13;;;;;;;;;;5098726;28;20024;-77
2022/06/26 00:55:44;;;;;;;18.23;7.30;;;;;;;;;;5107013;28;20141;-77
2022/06/26 00:58:11;;;;;;;19.15;7.47;;;;;;;;;;5101980;28;20047;-77
2022/06/26 01:00:37;;;;;;;21.45;7.70;;;;;;;;;;5099667;28;20031;-76
2022/06/26 01:03:03;;;;;;;25.17;7.93;;;;;;;;;;5108398;27;20473;-76
2022/06/26 01:05:29;;;;;;;23.75;8.27;;;;;;;;;;5106258;27;20100;-76
2022/06/26 01:07:55;;;;;;;25.33;8.63;;;;;;;;;;5104018;27;20513;-76
2022/06/26 01:10:22;;;;;;;23.13;8.10;;;;;;;;;;5111952;27;20053;-76
2022/06/26 01:12:48;;;;;;;22.30;7.55;;;;;;;;;;5106200;27;20065;-76
2022/06/26 01:15:14;;;;;;;22.63;7.05;;;;;;;;;;5106595;27;20049;-76
2022/06/26 01:17:40;;;;;;;33.13;7.93;;;;;;;;;;5110855;27;20278;-76
2022/06/26 01:20:07;;;;;;;22.83;7.47;;;;;;;;;;5106380;27;20023;-75
2022/06/26 01:22:33;;;;;;;21.95;8.43;;;;;;;;;;5109234;27;20073;-76
2022/06/26 01:24:59;;;;;;;21.08;8.45;;;;;;;;;;5103766;27;20098;-76
2022/06/26 01:27:26;;;;;;;19.35;9.13;;;;;;;;;;5105610;27;20020;-77
2022/06/26 01:29:52;;;;;;;20.77;7.95;;;;;;;;;;5113429;27;20271;-77
2022/06/26 01:32:18;;;;;;;22.33;8.70;;;;;;;;;;5103729;27;20034;-76
2022/06/26 01:34:44;;;;;;;26.90;8.27;;;;;;;;;;5108305;27;20308;-77
2022/06/26 01:37:10;;;;;;;18.58;7.28;;;;;;;;;;5110113;27;20038;-76
2022/06/26 01:39:36;;;;;;;23.58;7.68;;;;;;;;;;5105494;27;20453;-76
2022/06/26 01:42:02;;;;;;;16.95;7.95;;;;;;;;;;5109890;27;20035;-76
2022/06/26 01:44:28;;;;;;;24.25;7.63;;;;;;;;;;5104709;28;20047;-77
2022/06/26 01:46:54;;;;;;;32.70;8.32;;;;;;;;;;5113027;27;20407;-77
2022/06/26 01:49:23;;;;;;;29.27;7.68;;;;;;;;;;5105362;28;20042;-76
2022/06/26 01:51:49;;;;;;;22.30;6.90;;;;;;;;;;5104946;27;20506;-77
2022/06/26 01:54:17;;;;;;;20.23;6.50;;;;;;;;;;5108853;27;20124;-77
2022/06/26 01:56:43;;;;;;;33.60;7.30;;;;;;;;;;5103207;27;20051;-76
2022/06/26 01:59:09;;;;;;;21.38;6.53;;;;;;;;;;5112123;27;20115;-77
2022/06/26 02:01:36;;;;;;;24.17;6.50;;;;;;;;;;5110115;27;20031;-77
2022/06/26 02:04:02;;;;;;;25.13;7.45;;;;;;;;;;5107949;27;20075;-76
2022/06/26 02:06:28;;;;;;;13.60;6.82;;;;;;;;;;5111111;27;20023;-76
2022/06/26 02:08:54;;;;;;;18.65;8.18;;;;;;;;;;5105949;27;20390;-77
2022/06/26 02:14:05;;;;;;;19.60;5.93;;;;;;;;;;5102810;28;20062;-77
2022/06/26 02:16:31;;;;;;;20.92;5.90;;;;;;;;;;5102426;27;20026;-77
2022/06/26 02:18:58;;;;;;;28.70;6.13;;;;;;;;;;5109214;27;20485;-77
2022/06/26 02:21:27;;;;;;;20.20;6.03;;;;;;;;;;5101403;27;20035;-76
2022/06/26 02:23:53;;;;;;;20.50;6.15;;;;;;;;;;5093077;28;20424;-77
2022/06/26 02:26:21;;;;;;;18.15;7.03;;;;;;;;;;5107445;27;20028;-76
2022/06/26 02:28:47;;;;;;;27.38;7.43;;;;;;;;;;5115616;27;20034;-77
2022/06/26 02:31:14;;;;;;;22.90;7.20;;;;;;;;;;5109596;27;20024;-77
2022/06/26 02:33:40;;;;;;;24.20;7.65;;;;;;;;;;5106401;27;20044;-76
2022/06/26 02:36:06;;;;;;;25.52;7.53;;;;;;;;;;5106377;27;20039;-76
2022/06/26 02:38:33;;;;;;;27.70;8.27;;;;;;;;;;5087757;27;20459;-76
2022/06/26 02:40:59;;;;;;;18.67;8.07;;;;;;;;;;5111064;27;20027;-77
2022/06/26 02:43:25;;;;;;;19.25;7.55;;;;;;;;;;5108266;27;20054;-77
2022/06/26 02:45:52;;;;;;;25.65;8.68;;;;;;;;;;5102369;28;20032;-77
2022/06/26 02:48:19;;;;;;;26.48;9.45;;;;;;;;;;5109014;27;20043;-77
2022/06/26 02:50:46;;;;;;;27.25;8.88;;;;;;;;;;5106860;27;20028;-77
2022/06/26 02:53:12;;;;;;;30.15;9.07;;;;;;;;;;5113133;27;20477;-76
2022/06/26 02:55:39;;;;;;;21.67;8.35;;;;;;;;;;5105572;27;20076;-76
2022/06/26 02:58:05;;;;;;;19.10;8.15;;;;;;;;;;5100659;27;20032;-77
2022/06/26 03:00:31;;;;;;;19.25;8.45;;;;;;;;;;5077686;28;20036;-76
2022/06/26 03:02:57;;;;;;;25.85;8.85;;;;;;;;;;5113365;27;20038;-77
2022/06/26 03:05:23;;;;;;;18.52;8.45;;;;;;;;;;5109755;27;20102;-77
2022/06/26 03:07:49;;;;;;;21.48;8.50;;;;;;;;;;5094929;27;20032;-76
2022/06/26 03:10:15;;;;;;;18.77;8.25;;;;;;;;;;5084996;28;20100;-77
2022/06/26 03:12:46;;;;;;;19.25;8.65;;;;;;;;;;5110879;27;20049;-76
2022/06/26 03:15:12;;;;;;;16.67;8.15;;;;;;;;;;5106954;27;20306;-76
2022/06/26 03:17:39;;;;;;;22.67;8.60;;;;;;;;;;5096459;27;20076;-77
2022/06/26 03:20:07;;;;;;;20.55;8.98;;;;;;;;;;5094493;27;20111;-77
2022/06/26 03:22:33;;;;;;;20.88;8.77;;;;;;;;;;5098697;27;20334;-76
2022/06/26 03:24:59;;;;;;;18.23;8.98;;;;;;;;;;5107531;27;20039;-77
2022/06/26 03:27:25;;;;;;;23.15;9.05;;;;;;;;;;5100757;27;20470;-76
2022/06/26 03:29:51;;;;;;;27.55;8.73;;;;;;;;;;5105897;27;20038;-76
2022/06/26 03:32:17;;;;;;;18.23;8.20;;;;;;;;;;5100413;28;20024;-77
2022/06/26 03:34:43;;;;;;;19.10;9.40;;;;;;;;;;5096979;28;20028;-76
2022/06/26 03:37:09;;;;;;;18.83;8.57;;;;;;;;;;5100870;27;20031;-77
2022/06/26 03:39:36;;;;;;;27.67;8.38;;;;;;;;;;5100115;27;20035;-76
2022/06/26 03:42:02;;;;;;;27.70;8.65;;;;;;;;;;5103780;27;20162;-76
2022/06/26 03:44:29;;;;;;;27.42;7.47;;;;;;;;;;5100624;27;20047;-77
2022/06/26 03:46:55;;;;;;;21.52;7.90;;;;;;;;;;5098961;27;20038;-77
2022/06/26 03:49:22;;;;;;;24.55;8.00;;;;;;;;;;5106942;27;20084;-76
2022/06/26 03:51:48;;;;;;;25.45;8.13;;;;;;;;;;5101328;27;20439;-76
2022/06/26 03:54:14;;;;;;;24.83;7.45;;;;;;;;;;5102337;27;20023;-77
2022/06/26 03:56:40;;;;;;;26.02;7.68;;;;;;;;;;5099813;27;20027;-76
2022/06/26 03:59:06;;;;;;;23.17;6.30;;;;;;;;;;5102025;27;20074;-76
2022/06/26 04:01:32;;;;;;;34.30;7.38;;;;;;;;;;5105851;27;20031;-76
2022/06/26 04:03:59;;;;;;;24.15;6.53;;;;;;;;;;5099773;27;20541;-77
2022/06/26 04:06:25;;;;;;;24.70;7.30;;;;;;;;;;5084922;28;20031;-77
2022/06/26 04:08:51;;;;;;;27.02;6.97;;;;;;;;;;5102222;28;20179;-77
2022/06/26 04:11:17;;;;;;;23.40;6.15;;;;;;;;;;5103615;27;20027;-76
2022/06/26 04:13:43;;;;;;;32.05;7.15;;;;;;;;;;5106312;27;20019;-77
2022/06/26 04:16:09;;;;;;;21.33;6.20;;;;;;;;;;5101933;27;20039;-76
2022/06/26 04:18:36;;;;;;;26.15;6.65;;;;;;;;;;5089514;28;20019;-76
2022/06/26 04:21:02;;;;;;;27.13;7.63;;;;;;;;;;5095272;28;20042;-76
2022/06/26 04:23:28;;;;;;;23.15;6.93;;;;;;;;;;5106236;27;20015;-77
2022/06/26 04:25:55;;;;;;;23.60;7.25;;;;;;;;;;5104965;27;20490;-76
2022/06/26 04:28:21;;;;;;;27.25;7.50;;;;;;;;;;5105063;27;20127;-77
2022/06/26 04:30:47;;;;;;;26.40;7.57;;;;;;;;;;5104164;27;20328;-76
2022/06/26 04:33:13;;;;;;;25.90;7.28;;;;;;;;;;5101266;28;20027;-76
2022/06/26 04:35:39;;;;;;;26.55;7.30;;;;;;;;;;5106250;28;20512;-76
2022/06/26 04:38:05;;;;;;;29.92;8.05;;;;;;;;;;5094709;27;20044;-77
2022/06/26 04:40:31;;;;;;;22.13;7.80;;;;;;;;;;5094719;27;20062;-77
2022/06/26 04:42:58;;;;;;;21.10;8.30;;;;;;;;;;5098613;27;20051;-77
2022/06/26 04:45:24;;;;;;;20.42;8.15;;;;;;;;;;5099890;28;20546;-77
2022/06/26 04:47:50;;;;;;;25.30;8.60;;;;;;;;;;5099967;28;20032;-77
2022/06/26 04:50:16;;;;;;;24.40;9.65;;;;;;;;;;5103140;27;20027;-76
2022/06/26 04:52:46;;;;;;;20.42;8.82;;;;;;;;;;5101935;28;20050;-77
2022/06/26 04:55:12;;;;;;;22.30;8.50;;;;;;;;;;5104810;28;20020;-76
2022/06/26 04:57:38;;;;;;;27.75;8.90;;;;;;;;;;5099587;28;20050;-77
2022/06/26 05:00:08;;;;;;;27.27;8.60;;;;;;;;;;5097891;28;20088;-77
2022/06/26 05:02:35;;;;;;;24.83;9.32;;;;;;;;;;5122367;27;20024;-76
2022/06/26 05:05:01;;;;;;;20.92;7.90;;;;;;;;;;5099278;28;20040;-77
2022/06/26 05:07:27;;;;;;;26.35;8.38;;;;;;;;;;5102590;27;20031;-76
2022/06/26 05:09:54;;;;;;;18.80;7.70;;;;;;;;;;5099247;28;20028;-77
2022/06/26 05:12:20;;;;;;;27.25;8.73;;;;;;;;;;5100105;28;20166;-76
2022/06/26 05:14:46;;;;;;;23.50;8.70;;;;;;;;;;5108417;27;20055;-76
2022/06/26 05:17:12;;;;;;;24.60;8.20;;;;;;;;;;5098526;28;20043;-77
2022/06/26 05:19:38;;;;;;;23.17;7.97;;;;;;;;;;5100085;28;20031;-77
2022/06/26 05:22:05;;;;;;;28.30;8.38;;;;;;;;;;5099387;28;20028;-76
2022/06/26 05:24:31;;;;;;;18.58;8.07;;;;;;;;;;5100497;28;20498;-76
2022/06/26 05:26:58;;;;;;;24.45;8.10;;;;;;;;;;5102899;28;20027;-74
2022/06/26 05:29:25;;;;;;;23.80;8.60;;;;;;;;;;5101479;28;20198;-74
2022/06/26 05:31:51;;;;;;;21.73;8.13;;;;;;;;;;5105665;28;20027;-75
2022/06/26 05:34:17;;;;;;;18.75;8.38;;;;;;;;;;5102629;28;20266;-74
2022/06/26 05:36:43;;;;;;;22.60;8.98;;;;;;;;;;5106983;28;20348;-74
2022/06/26 05:39:10;;;;;;;20.92;8.32;;;;;;;;;;5091890;28;20100;-74
2022/06/26 05:41:36;;;;;;;17.25;6.43;;;;;;;;;;5094541;28;20502;-74
2022/06/26 05:44:02;;;;;;;16.88;6.25;;;;;;;;;;5100406;28;20038;-74
2022/06/26 05:46:28;;;;;;;18.30;6.10;;;;;;;;;;5095104;28;20023;-74
2022/06/26 05:48:55;;;;;;;16.52;7.22;;;;;;;;;;5100882;27;20028;-75
2022/06/26 05:51:22;;;;;;;21.70;7.45;;;;;;;;;;5093965;27;20111;-75
2022/06/26 05:53:48;;;;;;;25.23;7.43;;;;;;;;;;5104287;27;20016;-75
2022/06/26 05:56:14;;;;;;;21.48;7.72;;;;;;;;;;5104738;27;20027;-75
2022/06/26 05:58:40;;;;;;;20.58;7.40;;;;;;;;;;5110122;27;20031;-75
2022/06/26 06:01:06;;;;;;;17.02;6.35;;;;;;;;;;5098069;27;20039;-75
2022/06/26 06:03:33;;;;;;;22.38;7.30;;;;;;;;;;5105288;27;20023;-76
2022/06/26 06:05:59;;;;;;;18.92;6.78;;;;;;;;;;5092289;28;20341;-74
2022/06/26 06:08:25;;;;;;;18.73;7.32;;;;;;;;;;5100576;28;20027;-76
2022/06/26 06:10:51;;;;;;;19.77;6.82;;;;;;;;;;5110889;27;20055;-75
2022/06/26 06:13:18;;;;;;;13.52;6.13;;;;;;;;;;5103284;27;20030;-74
2022/06/26 06:15:44;;;;;;;25.98;7.35;;;;;;;;;;5108828;27;20049;-75
2022/06/26 06:18:12;;;;;;;16.83;7.43;;;;;;;;;;5116413;27;20490;-76
2022/06/26 06:20:38;;;;;;;21.05;7.63;;;;;;;;;;5101357;27;20071;-76
2022/06/26 06:23:06;;;;;;;17.98;7.13;;;;;;;;;;5111191;27;20049;-75
2022/06/26 06:25:32;;;;;;;17.63;6.97;;;;;;;;;;5108474;27;20550;-74
2022/06/26 06:27:59;;;;;;;17.45;7.10;;;;;;;;;;5103939;27;20023;-75
2022/06/26 06:30:25;;;;;;;27.05;8.35;;;;;;;;;;5091024;27;20035;-75
2022/06/26 06:32:51;;;;;;;18.67;7.00;;;;;;;;;;5097952;27;20039;-75
2022/06/26 06:35:17;;;;;;;16.02;6.32;;;;;;;;;;5106667;27;20020;-75
2022/06/26 06:37:44;;;;;;;25.10;8.13;;;;;;;;;;5105846;27;20028;-75
2022/06/26 06:40:11;;;;;;;20.48;7.80;;;;;;;;;;5098294;27;20019;-75
2022/06/26 06:42:37;;;;;;;27.42;8.02;;;;;;;;;;5095859;27;20044;-75
2022/06/26 06:45:04;;;;;;;20.73;8.25;;;;;;;;;;5087926;27;20036;-75
2022/06/26 06:47:30;;;;;;;19.67;7.95;;;;;;;;;;5093526;27;20024;-75
2022/06/26 06:49:56;;;;;;;19.60;8.05;;;;;;;;;;5092890;27;20039;-75
2022/06/26 06:52:22;;;;;;;24.50;8.73;;;;;;;;;;5081602;27;20027;-75
2022/06/26 06:54:48;;;;;;;33.05;8.68;;;;;;;;;;5089278;27;20037;-74
2022/06/26 06:57:14;;;;;;;25.27;8.80;;;;;;;;;;5088783;27;20024;-74
2022/06/26 06:59:41;;;;;;;18.88;7.70;;;;;;;;;;5091322;27;20035;-75
2022/06/26 07:02:07;;;;;;;26.83;8.00;;;;;;;;;;5087776;27;20388;-74
2022/06/26 07:04:33;;;;;;;19.15;7.25;;;;;;;;;;5086666;27;20031;-74
2022/06/26 07:06:59;;;;;;;23.75;7.78;;;;;;;;;;5099064;27;20031;-74
2022/06/26 07:09:25;;;;;;;22.58;7.57;;;;;;;;;;5087855;27;20024;-75
2022/06/26 07:11:51;;;;;;;20.80;7.40;;;;;;;;;;5088009;27;20390;-75
2022/06/26 07:14:17;;;;;;;25.63;7.45;;;;;;;;;;5097823;27;20479;-75
2022/06/26 07:16:43;;;;;;;19.42;7.57;;;;;;;;;;5081879;27;20036;-75
2022/06/26 07:19:10;;;;;;;30.58;8.15;;;;;;;;;;5087082;27;20501;-75
2022/06/26 07:21:36;;;;;;;21.75;7.50;;;;;;;;;;5088686;28;20039;-75
2022/06/26 07:24:02;;;;;;;23.63;7.95;;;;;;;;;;5092991;27;20032;-76
2022/06/26 07:26:28;;;;;;;27.52;7.95;;;;;;;;;;5091410;27;20029;-76
2022/06/26 07:28:55;;;;;;;18.13;6.53;;;;;;;;;;5090637;27;20107;-75
2022/06/26 07:31:21;;;;;;;26.35;7.95;;;;;;;;;;5076746;27;20023;-76
2022/06/26 07:36:32;;;;;;;29.88;7.60;;;;;;;;;;5084957;27;20092;-76
2022/06/26 07:38:58;;;;;;;22.92;7.57;;;;;;;;;;5097505;27;20028;-76
2022/06/26 07:41:24;;;;;;;24.58;7.35;;;;;;;;;;5094247;27;20036;-76
2022/06/26 07:43:50;;;;;;;30.30;7.53;;;;;;;;;;5081560;28;20139;-76
2022/06/26 07:46:17;;;;;;;18.10;7.10;;;;;;;;;;5090575;27;20027;-76
2022/06/26 07:48:43;;;;;;;28.95;8.27;;;;;;;;;;5089677;27;20125;-76
2022/06/26 07:51:09;;;;;;;20.50;8.00;;;;;;;;;;5089318;27;20035;-77
2022/06/26 07:53:36;;;;;;;20.05;7.13;;;;;;;;;;5091867;27;20084;-76
2022/06/26 07:56:03;;;;;;;25.40;7.32;;;;;;;;;;5093579;27;20039;-75
2022/06/26 07:58:29;;;;;;;19.23;7.75;;;;;;;;;;5086384;28;20027;-77
2022/06/26 08:00:56;;;;;;;32.95;8.20;;;;;;;;;;5081279;27;20071;-77
2022/06/26 08:03:22;;;;;;;26.85;7.72;;;;;;;;;;5090084;27;20020;-76
2022/06/26 08:05:48;;;;;;;19.83;7.30;;;;;;;;;;5097105;27;20571;-77
2022/06/26 08:08:14;;;;;;;26.45;7.75;;;;;;;;;;5103305;27;20032;-76
2022/06/26 08:10:40;;;;;;;28.48;7.85;;;;;;;;;;5088715;28;20106;-76
2022/06/26 08:13:07;;;;;;;23.10;7.15;;;;;;;;;;5093809;27;20421;-77
2022/06/26 08:15:34;;;;;;;30.45;7.63;;;;;;;;;;5090770;27;20032;-76
2022/06/26 08:18:00;;;;;;;24.77;8.40;;;;;;;;;;5088203;27;20024;-77
2022/06/26 08:20:26;;;;;;;25.13;8.60;;;;;;;;;;5107387;27;20024;-77
2022/06/26 08:22:52;;;;;;;23.38;8.13;;;;;;;;;;5089887;27;20036;-77
2022/06/26 08:25:18;;;;;;;26.38;8.27;;;;;;;;;;5094194;27;20613;-77
2022/06/26 08:27:45;;;;;;;25.27;7.80;;;;;;;;;;5091039;27;20026;-77
2022/06/26 08:30:11;;;;;;;22.08;7.40;;;;;;;;;;5090214;28;20028;-76
2022/06/26 08:32:37;;;;;;;16.67;7.88;;;;;;;;;;5103263;27;20153;-77
2022/06/26 08:35:08;;;;;;;26.20;8.18;;;;;;;;;;5098934;27;20031;-76
2022/06/26 08:37:34;;;;;;;26.85;8.00;;;;;;;;;;5099221;27;20027;-77
2022/06/26 08:40:00;;;;;;;26.75;8.27;;;;;;;;;;5089829;27;20498;-77
2022/06/26 08:42:27;;;;;;;26.90;7.35;;;;;;;;;;5093236;28;20047;-78
2022/06/26 08:44:55;;;;;;;21.42;7.03;;;;;;;;;;5114562;27;20677;-78
2022/06/26 08:47:23;;;;;;;25.63;7.63;;;;;;;;;;5112814;27;20020;-78
2022/06/26 08:49:49;;;;;;;25.42;8.32;;;;;;;;;;5109813;27;20039;-77
2022/06/26 08:52:17;;;;;;;24.27;7.63;;;;;;;;;;5106866;28;20020;-77
2022/06/26 08:54:44;;;;;;;28.55;8.20;;;;;;;;;;5107297;28;20244;-77
2022/06/26 08:57:12;;;;;;;25.67;7.43;;;;;;;;;;5109141;28;20042;-77
2022/06/26 08:59:39;;;;;;;25.25;7.43;;;;;;;;;;5109480;27;20019;-76
2022/06/26 09:02:05;;;;;;;27.05;7.50;;;;;;;;;;5108986;27;20042;-77
2022/06/26 09:04:31;;;;;;;28.92;7.07;;;;;;;;;;5115682;28;20056;-78
2022/06/26 09:06:58;;;;;;;26.35;7.00;;;;;;;;;;5106211;28;20035;-77
2022/06/26 09:09:25;;;;;;;22.02;7.18;;;;;;;;;;5107523;28;20073;-77
2022/06/26 09:11:56;;;;;;;35.60;8.10;;;;;;;;;;5087323;28;20118;-77
2022/06/26 09:14:22;;;;;;;23.27;7.43;;;;;;;;;;5107790;28;20450;-78
2022/06/26 09:16:49;;;;;;;28.05;8.05;;;;;;;;;;5101079;28;20038;-76
2022/06/26 09:19:20;;;;;;;32.25;7.85;;;;;;;;;;5107039;28;20065;-76
2022/06/26 09:21:47;;;;;;;28.90;7.22;;;;;;;;;;5093854;28;20028;-76
2022/06/26 09:24:14;;;;;;;23.13;7.10;;;;;;;;;;5104784;27;20035;-77
2022/06/26 09:26:41;;;;;;;23.05;7.07;;;;;;;;;;5103086;27;20027;-77
2022/06/26 09:29:15;;;;;;;27.77;8.57;;;;;;;;;;5111435;27;20031;-77
2022/06/26 09:31:41;;;;;;;24.08;7.82;;;;;;;;;;5098177;27;20031;-81
2022/06/26 09:34:32;;;;;;;;;;;;;;;;;;;;;
2022/06/26 09:43:44;;;;;;;33.65;9.07;;;;;;;;;;5049640;28;20050;-83
2022/06/26 09:46:11;;;;;;;28.92;8.35;;;;;;;;;;5033204;28;20124;-79
2022/06/26 09:48:38;;;;;;;32.50;7.72;;;;;;;;;;5047220;28;20032;-78
2022/06/26 09:51:08;;;;;;;29.23;8.20;;;;;;;;;;5074783;28;20040;-78
2022/06/26 09:53:35;;;;;;;34.07;9.03;;;;;;;;;;5102870;27;20024;-77
2022/06/26 09:56:01;;;;;;;29.90;8.02;;;;;;;;;;5105161;27;20406;-80
2022/06/26 09:58:28;;;;;;;22.70;6.75;;;;;;;;;;5105766;27;20024;-78
2022/06/26 10:06:28;;;;;;;31.38;8.02;;;;;;;;;;5091323;27;20132;-74
2022/06/26 10:08:57;;;;;;;22.13;6.53;;;;;;;;;;5103975;27;20036;-90
2022/06/26 10:11:27;;;;;;;24.08;7.30;;;;;;;;;;5099546;27;20024;-79
2022/06/26 10:13:54;;;;;;;24.58;7.72;;;;;;;;;;5105967;27;20592;-78
2022/06/26 10:16:39;;;;;;;30.33;8.13;;;;;;;;;;5072981;28;20019;-80
2022/06/26 10:19:08;;;;;;;22.20;7.35;;;;;;;;;;5101889;27;20019;-80
2022/06/26 10:21:35;;;;;;;24.08;7.10;;;;;;;;;;5094131;28;20028;-82
2022/06/26 10:24:02;;;;;;;31.77;8.27;;;;;;;;;;5092870;27;20032;-82
2022/06/26 10:26:29;;;;;;;22.65;7.88;;;;;;;;;;5098987;27;20206;-82
2022/06/26 10:28:57;;;;;;;21.90;7.13;;;;;;;;;;5080991;28;20035;-80
2022/06/26 10:31:47;;;;;;;29.00;8.30;;;;;;;;;;5085429;28;20170;-81
2022/06/26 10:34:20;;;;;;;20.65;7.38;;;;;;;;;;5075609;28;20028;-80
2022/06/26 10:37:07;;;;;;;29.23;8.15;;;;;;;;;;5101022;27;20026;-80
2022/06/26 10:39:40;;;;;;;18.52;6.53;;;;;;;;;;5103485;27;20507;-81
2022/06/26 10:44:59;;;;;;;23.77;7.45;;;;;;;;;;5089306;27;20055;-82
2022/06/26 10:47:25;;;;;;;27.70;7.72;;;;;;;;;;5087721;27;20035;-81
2022/06/26 10:49:52;;;;;;;29.77;8.23;;;;;;;;;;5077792;27;20054;-82
2022/06/26 10:52:31;;;;;;;23.58;7.45;;;;;;;;;;5092422;27;20058;-82
2022/06/26 10:55:02;;;;;;;22.10;7.60;;;;;;;;;;5101141;27;20502;-82
2022/06/26 10:57:28;;;;;;;24.35;7.68;;;;;;;;;;5098348;27;20059;-84
2022/06/26 10:59:55;;;;;;;27.75;7.35;;;;;;;;;;5103043;27;20039;-84
2022/06/26 11:02:21;;;;;;;20.92;6.60;;;;;;;;;;5104276;27;20035;-90
2022/06/26 11:05:31;;;;;;;17.83;6.38;;;;;;;;;;5108977;27;20132;-86
2022/06/26 11:08:03;;;;;;;24.40;7.60;;;;;;;;;;5068307;27;20031;-82
2022/06/26 11:10:33;;;;;;;26.98;7.47;;;;;;;;;;5085854;28;20043;-85
2022/06/26 11:13:07;;;;;;;26.65;7.68;;;;;;;;;;5083877;27;20038;-81
2022/06/26 11:15:49;;;;;;;29.15;7.85;;;;;;;;;;5079491;28;20620;-82
2022/06/26 11:18:27;;;;;;;31.95;7.80;;;;;;;;;;5110847;27;20040;-83
2022/06/26 11:23:47;;;;;;;33.28;8.68;;;;;;;;;;5096675;27;20629;-84
2022/06/26 11:26:14;;;;;;;24.27;7.05;;;;;;;;;;5085920;28;20890;-81
2022/06/26 11:28:41;;;;;;;22.30;6.90;;;;;;;;;;5082411;27;20431;-79
2022/06/26 11:31:09;;;;;;;29.48;6.65;;;;;;;;;;5071173;27;20508;-78
2022/06/26 11:33:37;;;;;;;25.52;8.38;;;;;;;;;;5085912;27;20036;-81
2022/06/26 11:36:03;;;;;;;32.22;8.07;;;;;;;;;;5111541;27;20031;-83
2022/06/26 11:38:30;;;;;;;25.80;6.60;;;;;;;;;;5076670;28;20787;-78
2022/06/26 11:40:58;;;;;;;23.92;7.35;;;;;;;;;;5104817;27;20038;-75
2022/06/26 11:43:24;;;;;;;24.35;7.53;;;;;;;;;;5103356;27;20047;-78
2022/06/26 11:45:50;;;;;;;25.50;7.07;;;;;;;;;;5073728;28;20145;-81
2022/06/26 11:48:17;;;;;;;27.92;7.47;;;;;;;;;;5102812;27;20024;-81
2022/06/26 11:50:47;;;;;;;29.90;7.78;;;;;;;;;;5099933;27;20680;-80
2022/06/26 11:53:18;;;;;;;23.95;8.15;;;;;;;;;;5103209;27;20032;-80
2022/06/26 11:55:45;;;;;;;25.80;8.15;;;;;;;;;;5103314;27;20031;-79
2022/06/26 11:58:12;;;;;;;32.92;7.82;;;;;;;;;;5104158;27;20407;-77
2022/06/26 12:00:38;;;;;;;25.60;7.80;;;;;;;;;;5077978;28;20030;-77
2022/06/26 12:03:04;;;;;;;24.55;8.38;;;;;;;;;;5093176;27;20039;-79
2022/06/26 12:05:31;;;;;;;27.25;7.30;;;;;;;;;;5077034;28;20028;-78
2022/06/26 12:07:57;;;;;;;27.60;7.50;;;;;;;;;;5072956;28;20031;-75
2022/06/26 12:10:29;;;;;;;24.13;7.22;;;;;;;;;;5078862;27;20031;-77
2022/06/26 12:12:56;;;;;;;26.10;7.15;;;;;;;;;;5102340;27;20497;-78
2022/06/26 12:15:23;;;;;;;27.13;7.40;;;;;;;;;;5069797;27;20088;-79
2022/06/26 12:17:57;;;;;;;26.40;6.82;;;;;;;;;;5105545;27;20110;-76
2022/06/26 12:20:23;;;;;;;16.83;5.90;;;;;;;;;;5097615;28;20080;-77
2022/06/26 12:22:51;;;;;;;22.85;6.15;;;;;;;;;;5080811;28;20033;-79
2022/06/26 12:25:28;;;;;;;17.05;5.72;;;;;;;;;;5103004;27;20507;-82
2022/06/26 12:27:54;;;;;;;19.92;6.43;;;;;;;;;;5099073;27;20032;-80
2022/06/26 12:30:22;;;;;;;24.77;6.80;;;;;;;;;;5131057;27;20031;-79
2022/06/26 12:32:50;;;;;;;21.05;6.22;;;;;;;;;;5097260;28;20435;-82
2022/06/26 12:35:17;;;;;;;18.92;5.60;;;;;;;;;;5113924;27;20550;-81
2022/06/26 12:37:43;;;;;;;17.65;6.30;;;;;;;;;;5120466;27;20031;-78
2022/06/26 12:40:09;;;;;;;24.38;5.50;;;;;;;;;;5080316;28;20479;-78
2022/06/26 12:42:36;;;;;;;16.05;5.60;;;;;;;;;;5105010;27;20108;-80
2022/06/26 12:45:03;;;;;;;19.38;5.72;;;;;;;;;;5076464;28;20173;-80
2022/06/26 12:47:37;;;;;;;22.85;6.90;;;;;;;;;;5097540;27;20048;-84
2022/06/26 12:50:04;;;;;;;23.23;6.35;;;;;;;;;;5087036;27;20027;-81
2022/06/26 12:52:39;;;;;;;14.20;5.93;;;;;;;;;;5091519;28;20051;-83
2022/06/26 12:55:06;;;;;;;21.70;6.50;;;;;;;;;;5086100;28;20399;-81
2022/06/26 12:57:33;;;;;;;20.05;5.90;;;;;;;;;;5101002;27;20020;-78
2022/06/26 13:00:01;;;;;;;23.05;5.97;;;;;;;;;;5071382;28;20368;-78
2022/06/26 13:02:30;;;;;;;25.40;6.18;;;;;;;;;;5079399;28;20028;-82
2022/06/26 13:04:56;;;;;;;16.85;5.47;;;;;;;;;;5110438;27;20068;-83
2022/06/26 13:07:22;;;;;;;23.02;6.05;;;;;;;;;;5104883;27;20313;-80
2022/06/26 13:09:49;;;;;;;23.05;6.28;;;;;;;;;;5086747;28;20020;-79
2022/06/26 13:12:15;;;;;;;20.80;6.43;;;;;;;;;;5107081;28;20051;-78
2022/06/26 13:14:42;;;;;;;21.40;5.05;;;;;;;;;;5104396;28;20103;-80
2022/06/26 13:17:10;;;;;;;19.23;5.13;;;;;;;;;;5104300;27;20019;-82
2022/06/26 13:19:37;;;;;;;25.17;5.57;;;;;;;;;;5098881;28;20024;-77
2022/06/26 13:22:04;;;;;;;20.35;5.35;;;;;;;;;;5102456;28;20076;-77
2022/06/26 13:24:30;;;;;;;21.50;5.65;;;;;;;;;;5106413;28;20039;-79
2022/06/26 13:26:56;;;;;;;18.13;5.63;;;;;;;;;;5078840;28;20659;-80
2022/06/26 13:29:22;;;;;;;22.63;6.03;;;;;;;;;;5113551;28;20032;-76
2022/06/26 13:31:50;;;;;;;25.67;5.93;;;;;;;;;;5105122;28;20035;-78
2022/06/26 13:34:16;;;;;;;27.13;7.03;;;;;;;;;;5101328;28;20592;-76
2022/06/26 13:36:42;;;;;;;28.00;6.28;;;;;;;;;;5100597;28;20016;-77
2022/06/26 13:39:09;;;;;;;19.10;4.95;;;;;;;;;;5101024;28;20594;-77
2022/06/26 13:41:35;;;;;;;29.17;6.88;;;;;;;;;;5098868;28;20596;-76
2022/06/26 13:44:03;;;;;;;30.52;6.65;;;;;;;;;;5117006;27;20047;-78
2022/06/26 13:46:29;;;;;;;26.10;5.32;;;;;;;;;;5109983;27;20433;-78
2022/06/26 13:48:56;;;;;;;23.83;6.07;;;;;;;;;;5094472;28;20027;-78
2022/06/26 13:51:22;;;;;;;27.08;5.82;;;;;;;;;;5095005;28;20379;-77
2022/06/26 13:53:48;;;;;;;26.88;5.82;;;;;;;;;;5097500;28;20023;-78
2022/06/26 13:56:16;;;;;;;24.48;5.75;;;;;;;;;;5100256;28;20084;-76
2022/06/26 13:58:42;;;;;;;36.63;5.70;;;;;;;;;;5099472;28;20038;-78
2022/06/26 14:01:08;;;;;;;31.02;6.00;;;;;;;;;;5100531;28;20039;-78
2022/06/26 14:03:35;;;;;;;34.53;6.40;;;;;;;;;;5108573;28;20020;-77
2022/06/26 14:06:01;;;;;;;27.13;5.80;;;;;;;;;;5098376;28;20043;-77
2022/06/26 14:08:27;;;;;;;29.35;5.93;;;;;;;;;;5096000;28;20222;-77
2022/06/26 14:10:53;;;;;;;35.10;6.70;;;;;;;;;;5075411;28;20036;-78
2022/06/26 14:13:19;;;;;;;31.23;6.88;;;;;;;;;;5102156;27;20016;-77
2022/06/26 14:15:45;;;;;;;24.73;5.80;;;;;;;;;;5107304;27;20221;-77
2022/06/26 14:18:11;;;;;;;21.30;5.18;;;;;;;;;;5110063;27;20057;-77
2022/06/26 14:20:38;;;;;;;27.20;5.90;;;;;;;;;;5082265;27;20023;-78
2022/06/26 14:25:59;;;;;;;29.70;5.68;;;;;;;;;;5100973;27;20458;-78
2022/06/26 14:28:26;;;;;;;23.33;5.53;;;;;;;;;;5113452;27;20442;-74
2022/06/26 14:30:52;;;;;;;27.60;7.18;;;;;;;;;;5096393;27;20020;-79
2022/06/26 14:33:19;;;;;;;21.50;5.72;;;;;;;;;;5092346;27;20016;-81
2022/06/26 14:35:46;;;;;;;27.55;5.65;;;;;;;;;;5101834;27;20509;-82
2022/06/26 14:38:14;;;;;;;20.48;5.60;;;;;;;;;;5098734;27;20015;-76
2022/06/26 14:40:42;;;;;;;24.73;6.13;;;;;;;;;;5090733;27;20023;-81
2022/06/26 14:43:09;;;;;;;30.92;6.28;;;;;;;;;;5107425;27;20438;-74
2022/06/26 14:45:35;;;;;;;22.35;5.25;;;;;;;;;;5102801;27;20095;-76
2022/06/26 14:48:01;;;;;;;29.05;5.97;;;;;;;;;;5101971;27;20114;-76
2022/06/26 14:50:27;;;;;;;21.02;6.45;;;;;;;;;;5099375;27;20056;-77
2022/06/26 14:52:53;;;;;;;33.83;6.70;;;;;;;;;;5099282;27;20039;-75
2022/06/26 14:55:20;;;;;;;25.20;5.93;;;;;;;;;;5091529;27;20024;-76
2022/06/26 14:57:47;;;;;;;24.00;6.03;;;;;;;;;;5096339;27;20027;-78